createdAt,value
2023-07-24T00:02:11.941Z,1.75
2023-07-24T00:04:39.657Z,1.92
2023-07-24T00:07:07.875Z,1.20
2023-07-24T00:09:35.585Z,1.50
2023-07-24T00:12:03.348Z,1.40
2023-07-24T00:14:32.270Z,1.25
2023-07-24T00:17:01.460Z,1.35
2023-07-24T00:19:29.175Z,1.60
2023-07-24T00:21:56.876Z,1.27
2023-07-24T00:24:24.696Z,1.58
2023-07-24T00:26:52.445Z,1.35
2023-07-24T00:29:20.227Z,1.60
2023-07-24T00:31:47.969Z,1.85
2023-07-24T00:34:17.080Z,2.20
2023-07-24T00:36:44.864Z,1.58
2023-07-24T00:39:13.016Z,2.15
2023-07-24T00:41:40.746Z,1.20
2023-07-24T00:44:08.617Z,1.42
2023-07-24T00:46:37.532Z,1.88
2023-07-24T00:49:06.938Z,1.73
2023-07-24T00:51:36.869Z,2.25
2023-07-24T00:54:05.637Z,1.70
2023-07-24T00:56:34.299Z,1.70
2023-07-24T00:59:02.887Z,1.65
2023-07-24T01:01:31.029Z,2.47
2023-07-24T01:03:59.488Z,1.40
2023-07-24T01:06:27.532Z,1.90
2023-07-24T01:08:57.075Z,1.73
2023-07-24T01:11:29.797Z,1.67
2023-07-24T01:14:01.502Z,2.00
2023-07-24T01:16:38.266Z,2.38
2023-07-24T01:19:11.607Z,1.50
2023-07-24T01:21:54.036Z,2.08
2023-07-24T01:24:32.689Z,2.28
2023-07-24T01:27:01.853Z,2.53
2023-07-24T01:29:29.621Z,2.33
2023-07-24T01:31:57.595Z,2.05
2023-07-24T01:34:25.352Z,1.80
2023-07-24T01:36:53.233Z,2.20
2023-07-24T01:39:22.353Z,2.53
2023-07-24T01:41:50.136Z,2.17
2023-07-24T01:44:20.172Z,1.27
2023-07-24T01:46:48.040Z,2.05
2023-07-24T01:49:15.898Z,1.50
2023-07-24T01:51:43.789Z,2.13
2023-07-24T01:54:11.534Z,2.28
2023-07-24T01:56:40.652Z,2.40
2023-07-24T01:59:08.462Z,2.35
2023-07-24T02:01:37.700Z,1.95
2023-07-24T02:04:05.796Z,2.38
2023-07-24T02:06:33.535Z,2.08
2023-07-24T02:09:01.263Z,2.03
2023-07-24T02:11:29.042Z,1.48
2023-07-24T02:13:56.869Z,2.50
2023-07-24T02:16:24.697Z,1.83
2023-07-24T02:18:53.868Z,1.95
2023-07-24T02:21:21.586Z,2.15
2023-07-24T02:23:49.350Z,1.95
2023-07-24T02:26:17.092Z,1.77
2023-07-24T02:28:44.794Z,1.77
2023-07-24T02:31:12.760Z,2.20
2023-07-24T02:33:40.559Z,2.03
2023-07-24T02:36:10.207Z,1.50
2023-07-24T02:38:38.115Z,2.10
2023-07-24T02:41:05.870Z,1.40
2023-07-24T02:43:33.671Z,1.67
2023-07-24T02:46:03.559Z,2.03
2023-07-24T02:48:31.495Z,1.70
2023-07-24T02:50:59.263Z,1.75
2023-07-24T02:53:28.477Z,2.28
2023-07-24T02:55:56.247Z,2.30
2023-07-24T02:58:23.979Z,2.55
2023-07-24T03:00:51.859Z,1.70
2023-07-24T03:03:19.730Z,1.92
2023-07-24T03:05:47.556Z,2.75
2023-07-24T03:08:15.319Z,1.45
2023-07-24T03:10:44.747Z,2.00
2023-07-24T03:13:12.527Z,1.77
2023-07-24T03:15:40.312Z,1.75
2023-07-24T03:18:08.155Z,1.75
2023-07-24T03:20:35.941Z,1.95
2023-07-24T03:23:03.680Z,1.50
2023-07-24T03:25:32.727Z,1.45
2023-07-24T03:28:01.846Z,1.50
2023-07-24T03:30:29.559Z,1.65
2023-07-24T03:32:57.409Z,2.03
2023-07-24T03:35:25.217Z,1.60
2023-07-24T03:37:52.992Z,1.38
2023-07-24T03:40:20.790Z,1.77
2023-07-24T03:42:48.488Z,1.58
2023-07-24T03:45:17.605Z,1.52
2023-07-24T03:47:45.641Z,2.08
2023-07-24T03:50:13.503Z,1.75
2023-07-24T03:52:41.270Z,1.67
2023-07-24T03:55:10.334Z,1.80
2023-07-24T03:57:38.119Z,1.73
2023-07-24T04:00:06.902Z,1.17
2023-07-24T04:02:36.047Z,1.60
2023-07-24T04:05:03.868Z,1.40
2023-07-24T04:07:31.602Z,1.38
2023-07-24T04:09:59.580Z,1.98
2023-07-24T04:12:27.367Z,1.20
2023-07-24T04:14:55.133Z,1.15
2023-07-24T04:17:23.128Z,1.60
2023-07-24T04:19:52.261Z,1.30
2023-07-24T04:22:19.990Z,2.35
2023-07-24T04:24:47.814Z,1.55
2023-07-24T04:27:15.941Z,1.65
2023-07-24T04:29:43.733Z,1.50
2023-07-24T04:32:11.471Z,1.90
2023-07-24T04:34:39.394Z,1.50
2023-07-24T04:37:08.489Z,2.10
2023-07-24T04:39:36.254Z,1.90
2023-07-24T04:42:04.160Z,1.60
2023-07-24T04:44:33.017Z,1.83
2023-07-24T04:47:00.871Z,2.25
2023-07-24T04:49:30.830Z,2.10
2023-07-24T04:51:58.693Z,1.52
2023-07-24T04:54:27.820Z,1.70
2023-07-24T04:56:55.520Z,1.50
2023-07-24T04:59:23.334Z,1.58
2023-07-24T05:01:51.065Z,1.75
2023-07-24T05:04:18.943Z,2.03
2023-07-24T05:06:46.694Z,2.22
2023-07-24T05:09:15.489Z,1.63
2023-07-24T05:11:45.809Z,1.85
2023-07-24T05:14:13.590Z,1.77
2023-07-24T05:16:41.381Z,1.58
2023-07-24T05:19:09.195Z,1.58
2023-07-24T05:21:36.947Z,2.92
2023-07-24T05:24:05.010Z,1.58
2023-07-24T05:26:33.107Z,1.77
2023-07-24T05:29:02.487Z,1.75
2023-07-24T05:31:30.220Z,1.50
2023-07-24T05:33:58.065Z,1.17
2023-07-24T05:36:25.853Z,1.77
2023-07-24T05:38:53.975Z,1.30
2023-07-24T05:41:21.709Z,2.25
2023-07-24T05:43:49.481Z,2.40
2023-07-24T05:46:18.623Z,1.33
2023-07-24T05:48:46.415Z,1.48
2023-07-24T05:51:14.146Z,2.10
2023-07-24T05:53:41.975Z,1.38
2023-07-24T05:56:09.831Z,1.48
2023-07-24T05:58:37.625Z,1.48
2023-07-24T06:01:05.720Z,1.52
2023-07-24T06:03:34.969Z,1.73
2023-07-24T06:06:02.738Z,1.67
2023-07-24T06:08:30.780Z,1.65
2023-07-24T06:10:58.570Z,1.35
2023-07-24T06:13:26.410Z,1.35
2023-07-24T06:15:54.851Z,1.63
2023-07-24T06:18:22.593Z,2.10
2023-07-24T06:20:54.840Z,1.52
2023-07-24T06:23:22.615Z,1.43
2023-07-24T06:25:50.327Z,1.27
2023-07-24T06:28:18.083Z,1.60
2023-07-24T06:30:45.866Z,1.58
2023-07-24T06:33:13.674Z,1.42
2023-07-24T06:35:41.444Z,1.98
2023-07-24T06:38:10.540Z,1.73
2023-07-24T06:40:38.301Z,2.45
2023-07-24T06:43:06.061Z,1.33
2023-07-24T06:45:33.907Z,1.67
2023-07-24T06:48:01.702Z,1.77
2023-07-24T06:50:29.517Z,1.58
2023-07-24T06:52:57.348Z,1.60
2023-07-24T06:55:26.485Z,1.92
2023-07-24T06:57:54.245Z,2.38
2023-07-24T07:00:22.074Z,1.50
2023-07-24T07:02:49.846Z,2.50
2023-07-24T07:05:17.756Z,1.48
2023-07-24T07:07:45.739Z,2.47
2023-07-24T07:10:13.500Z,1.38
2023-07-24T07:12:42.598Z,1.60
2023-07-24T07:15:11.094Z,1.42
2023-07-24T07:17:38.826Z,1.60
2023-07-24T07:20:08.358Z,1.92
2023-07-24T07:22:36.691Z,2.10
2023-07-24T07:25:04.743Z,1.88
2023-07-24T07:27:32.557Z,1.60
2023-07-24T07:30:01.708Z,1.35
2023-07-24T07:32:29.528Z,2.05
2023-07-24T07:34:57.319Z,1.90
2023-07-24T07:37:25.033Z,1.75
2023-07-24T07:39:52.779Z,1.30
2023-07-24T07:42:20.602Z,1.42
2023-07-24T07:44:48.484Z,1.42
2023-07-24T07:47:17.594Z,1.13
2023-07-24T07:49:45.341Z,1.42
2023-07-24T07:52:13.799Z,1.48
2023-07-24T07:54:41.620Z,1.70
2023-07-24T07:57:09.363Z,1.50
2023-07-24T07:59:37.238Z,1.60
2023-07-24T08:02:05.437Z,1.20
2023-07-24T08:04:34.573Z,1.70
2023-07-24T08:07:02.434Z,1.27
2023-07-24T08:09:30.481Z,1.52
2023-07-24T08:11:58.282Z,1.60
2023-07-24T08:14:26.087Z,1.50
2023-07-24T08:16:54.417Z,1.60
2023-07-24T08:19:22.402Z,1.20
2023-07-24T08:21:51.519Z,1.13
2023-07-24T08:24:19.292Z,0.93
2023-07-24T08:26:47.055Z,1.35
2023-07-24T08:29:14.972Z,1.10
2023-07-24T08:31:42.725Z,1.77
2023-07-24T08:34:10.550Z,1.40
2023-07-24T08:36:38.809Z,1.30
2023-07-24T08:39:07.904Z,0.95
2023-07-24T08:41:36.387Z,1.10
2023-07-24T08:44:04.570Z,1.10
2023-07-24T08:46:32.651Z,1.70
2023-07-24T08:49:00.751Z,0.80
2023-07-24T08:51:29.104Z,0.82
2023-07-24T08:53:58.135Z,1.55
2023-07-24T08:56:27.335Z,0.90
2023-07-24T08:58:55.212Z,1.65
2023-07-24T09:01:22.953Z,1.15
2023-07-24T09:03:53.156Z,1.10
2023-07-24T09:06:21.122Z,0.75
2023-07-24T09:08:48.876Z,1.20
2023-07-24T09:11:17.148Z,0.88
2023-07-24T09:13:46.585Z,0.60
2023-07-24T09:16:23.514Z,1.25
2023-07-24T09:18:59.873Z,1.13
2023-07-24T09:21:38.101Z,1.10
2023-07-24T09:24:13.778Z,1.08
2023-07-24T09:26:51.470Z,0.90
2023-07-24T09:29:21.771Z,0.80
2023-07-24T09:31:49.955Z,1.63
2023-07-24T09:34:18.945Z,0.68
2023-07-24T09:36:47.382Z,1.23
2023-07-24T09:39:15.100Z,1.02
2023-07-24T09:41:42.936Z,1.27
2023-07-24T09:44:14.734Z,1.00
2023-07-24T09:47:00.954Z,0.95
2023-07-24T09:49:31.250Z,1.00
2023-07-24T09:52:04.570Z,1.27
2023-07-24T09:54:42.029Z,3.10
2023-07-24T09:57:21.346Z,3.33
2023-07-24T09:59:51.752Z,1.42
2023-07-24T10:02:21.346Z,2.00
2023-07-24T10:04:49.868Z,2.17
2023-07-24T10:07:18.079Z,1.45
2023-07-24T10:09:46.010Z,0.95
2023-07-24T10:12:14.008Z,0.98
2023-07-24T10:14:42.496Z,0.50
2023-07-24T10:17:10.487Z,0.70
2023-07-24T10:19:43.038Z,0.90
2023-07-24T10:22:11.872Z,1.15
2023-07-24T10:24:43.083Z,0.50
2023-07-24T10:27:11.058Z,0.75
2023-07-24T10:29:38.874Z,0.40
2023-07-24T10:32:18.499Z,0.63
2023-07-24T10:34:47.753Z,0.80
2023-07-24T10:37:15.464Z,0.70
2023-07-24T10:39:43.621Z,0.40
2023-07-24T10:42:12.393Z,0.90
2023-07-24T10:44:41.666Z,0.65
2023-07-24T10:47:09.409Z,0.80
2023-07-24T10:49:37.222Z,1.02
2023-07-24T10:52:07.078Z,1.30
2023-07-24T10:54:34.934Z,1.13
2023-07-24T10:57:02.948Z,0.93
2023-07-24T10:59:40.882Z,0.80
2023-07-24T11:02:11.282Z,0.60
2023-07-24T11:04:39.184Z,0.57
2023-07-24T11:07:08.666Z,0.50
2023-07-24T11:09:37.857Z,0.60
2023-07-24T11:12:20.287Z,0.50
2023-07-24T11:14:50.909Z,0.73
2023-07-24T11:17:19.137Z,0.57
2023-07-24T11:19:47.232Z,0.40
2023-07-24T11:22:16.806Z,0.65
2023-07-24T11:24:46.227Z,0.60
2023-07-24T11:27:16.936Z,0.60
2023-07-24T11:29:49.683Z,0.40
2023-07-24T11:32:20.281Z,0.40
2023-07-24T11:34:49.057Z,0.40
2023-07-24T11:37:19.288Z,0.90
2023-07-24T11:39:57.507Z,1.05
2023-07-24T11:42:27.407Z,0.80
2023-07-24T11:44:55.903Z,0.52
2023-07-24T11:47:23.852Z,0.88
2023-07-24T11:50:02.103Z,0.60
2023-07-24T11:52:42.066Z,0.95
2023-07-24T11:55:10.305Z,0.50
2023-07-24T11:57:38.081Z,0.50
2023-07-24T12:00:07.114Z,0.70
2023-07-24T12:02:35.618Z,0.73
2023-07-24T12:05:03.826Z,0.90
2023-07-24T12:07:34.661Z,0.43
2023-07-24T12:10:05.625Z,0.52
2023-07-24T12:12:47.191Z,0.90
2023-07-24T12:15:16.674Z,1.00
2023-07-24T12:17:44.458Z,1.00
2023-07-24T12:20:12.695Z,1.20
2023-07-24T12:22:41.106Z,1.05
2023-07-24T12:25:13.675Z,0.88
2023-07-24T12:27:42.842Z,0.95
2023-07-24T12:30:10.975Z,1.08
2023-07-24T12:32:38.804Z,0.82
2023-07-24T12:35:07.570Z,0.90
2023-07-24T12:37:35.325Z,1.30
2023-07-24T12:40:03.372Z,1.30
2023-07-24T12:42:32.524Z,1.23
2023-07-24T12:45:00.414Z,1.00
2023-07-24T12:47:28.345Z,0.80
2023-07-24T12:49:57.315Z,1.13
2023-07-24T12:52:25.298Z,0.70
2023-07-24T12:55:01.631Z,0.68
2023-07-24T12:57:30.295Z,1.10
2023-07-24T12:59:59.519Z,0.80
2023-07-24T13:02:27.297Z,0.80
2023-07-24T13:04:55.102Z,0.70
2023-07-24T13:07:22.917Z,0.52
2023-07-24T13:09:50.674Z,0.60
2023-07-24T13:12:19.593Z,1.02
2023-07-24T13:14:47.289Z,0.75
2023-07-24T13:17:16.500Z,0.43
2023-07-24T13:19:44.390Z,0.93
2023-07-24T13:22:12.132Z,0.73
2023-07-24T13:24:39.881Z,0.82
2023-07-24T13:27:08.365Z,0.80
2023-07-24T13:29:36.162Z,0.52
2023-07-24T13:32:03.932Z,0.63
2023-07-24T13:34:33.035Z,0.68
2023-07-24T13:37:00.748Z,0.90
2023-07-24T13:39:29.369Z,0.65
2023-07-24T13:41:57.153Z,1.10
2023-07-24T13:44:24.928Z,0.88
2023-07-24T13:46:52.716Z,0.60
2023-07-24T13:49:20.531Z,0.40
2023-07-24T13:51:49.630Z,0.70
2023-07-24T13:54:17.373Z,0.77
2023-07-24T13:56:45.144Z,0.52
2023-07-24T13:59:12.871Z,0.88
2023-07-24T14:01:40.607Z,0.68
2023-07-24T14:04:08.558Z,0.93
2023-07-24T14:06:36.480Z,0.88
2023-07-24T14:09:05.647Z,0.70
2023-07-24T14:11:33.743Z,0.52
2023-07-24T14:14:01.744Z,0.77
2023-07-24T14:16:29.478Z,0.50
2023-07-24T14:18:57.261Z,0.60
2023-07-24T14:21:24.975Z,0.68
2023-07-24T14:23:52.709Z,1.20
2023-07-24T14:26:21.885Z,0.70
2023-07-24T14:28:49.642Z,0.73
2023-07-24T14:31:17.473Z,0.73
2023-07-24T14:33:45.311Z,0.63
2023-07-24T14:36:13.079Z,1.20
2023-07-24T14:38:40.825Z,1.33
2023-07-24T14:41:08.616Z,1.58
2023-07-24T14:43:37.719Z,0.98
2023-07-24T14:46:05.615Z,0.80
2023-07-24T14:48:34.526Z,0.90
2023-07-24T14:51:02.426Z,1.00
2023-07-24T14:53:30.214Z,1.00
2023-07-24T14:55:58.026Z,1.30
2023-07-24T14:58:25.791Z,1.30
2023-07-24T15:00:54.997Z,0.95
2023-07-24T15:03:23.234Z,0.85
2023-07-24T15:05:51.132Z,0.98
2023-07-24T15:08:18.869Z,0.85
2023-07-24T15:10:46.631Z,1.13
2023-07-24T15:13:15.502Z,1.27
2023-07-24T15:15:43.413Z,0.88
2023-07-24T15:18:12.608Z,0.90
2023-07-24T15:20:40.358Z,1.38
2023-07-24T15:23:10.013Z,1.33
2023-07-24T15:25:38.083Z,1.38
2023-07-24T15:28:06.203Z,0.93
2023-07-24T15:30:33.990Z,1.00
2023-07-24T15:33:01.828Z,0.80
2023-07-24T15:35:31.020Z,0.52
2023-07-24T15:37:58.742Z,0.85
2023-07-24T15:40:26.484Z,0.85
2023-07-24T15:42:54.208Z,0.45
2023-07-24T15:45:21.973Z,0.90
2023-07-24T15:47:49.749Z,0.70
2023-07-24T15:50:17.535Z,0.60
2023-07-24T15:52:46.623Z,1.30
2023-07-24T15:55:14.386Z,1.08
2023-07-24T15:57:42.133Z,1.05
2023-07-24T16:00:11.167Z,1.20
2023-07-24T16:02:39.101Z,1.40
2023-07-24T16:05:07.673Z,1.15
2023-07-24T16:07:35.984Z,1.08
2023-07-24T16:10:05.835Z,1.60
2023-07-24T16:12:33.609Z,1.38
2023-07-24T16:15:01.665Z,0.90
2023-07-24T16:17:33.709Z,0.90
2023-07-24T16:20:01.955Z,0.75
2023-07-24T16:22:30.353Z,1.08
2023-07-24T16:24:58.092Z,0.93
2023-07-24T16:27:27.417Z,1.05
2023-07-24T16:29:55.115Z,0.95
2023-07-24T16:32:28.306Z,1.20
2023-07-24T16:34:56.474Z,1.10
2023-07-24T16:37:25.551Z,1.40
2023-07-24T16:39:53.295Z,0.85
2023-07-24T16:42:21.055Z,0.80
2023-07-24T16:44:58.881Z,1.15
2023-07-24T16:47:27.137Z,1.15
2023-07-24T16:49:54.977Z,1.00
2023-07-24T16:52:23.130Z,1.00
2023-07-24T16:54:51.709Z,1.20
2023-07-24T16:57:19.543Z,0.90
2023-07-24T16:59:47.312Z,0.98
2023-07-24T17:02:16.470Z,1.00
2023-07-24T17:04:44.214Z,1.17
2023-07-24T17:07:12.018Z,0.80
2023-07-24T17:09:39.749Z,1.20
2023-07-24T17:12:08.740Z,1.10
2023-07-24T17:14:36.490Z,0.90
2023-07-24T17:17:04.498Z,1.08
2023-07-24T17:19:33.612Z,0.82
2023-07-24T17:22:01.393Z,0.82
2023-07-24T17:24:29.184Z,0.85
2023-07-24T17:26:56.978Z,0.80
2023-07-24T17:29:24.731Z,0.80
2023-07-24T17:31:52.501Z,0.85
2023-07-24T17:34:20.209Z,1.00
2023-07-24T17:36:49.361Z,1.20
2023-07-24T17:39:17.100Z,1.08
2023-07-24T17:41:44.875Z,1.67
2023-07-24T17:44:12.631Z,1.40
2023-07-24T17:46:40.408Z,1.50
2023-07-24T17:49:08.278Z,1.60
2023-07-24T17:51:36.171Z,1.73
2023-07-24T17:54:05.770Z,1.50
2023-07-24T17:56:33.488Z,2.03
2023-07-24T17:59:01.297Z,1.70
2023-07-24T18:01:29.303Z,1.77
2023-07-24T18:03:57.408Z,1.45
2023-07-24T18:06:25.183Z,1.70
2023-07-24T18:08:52.934Z,2.08
2023-07-24T18:11:22.560Z,2.40
2023-07-24T18:13:50.320Z,2.28
2023-07-24T18:16:18.163Z,1.35
2023-07-24T18:18:45.972Z,2.78
2023-07-24T18:21:13.715Z,1.52
2023-07-24T18:23:41.420Z,1.92
2023-07-24T18:26:10.611Z,1.70
2023-07-24T18:28:39.763Z,1.35
2023-07-24T18:31:08.739Z,1.23
2023-07-24T18:33:37.074Z,1.35
2023-07-24T18:36:05.232Z,1.40
2023-07-24T18:38:33.008Z,2.33
2023-07-24T18:41:01.151Z,1.10
2023-07-24T18:43:29.253Z,1.80
2023-07-24T18:45:58.853Z,1.80
2023-07-24T18:48:27.296Z,1.80
2023-07-24T18:50:55.236Z,1.73
2023-07-24T18:53:22.996Z,1.30
2023-07-24T18:55:50.784Z,1.70
2023-07-24T18:58:18.575Z,1.50
2023-07-24T19:00:46.341Z,1.60
2023-07-24T19:03:15.496Z,1.40
2023-07-24T19:05:43.274Z,1.95
2023-07-24T19:08:11.135Z,2.03
2023-07-24T19:10:38.952Z,1.48
2023-07-24T19:13:06.850Z,1.27
2023-07-24T19:15:34.591Z,1.60
2023-07-24T19:18:02.340Z,1.75
2023-07-24T19:20:33.443Z,1.63
2023-07-24T19:23:03.673Z,1.40
2023-07-24T19:25:32.474Z,1.40
2023-07-24T19:28:00.266Z,1.58
2023-07-24T19:30:28.089Z,1.05
2023-07-24T19:32:55.949Z,1.50
2023-07-24T19:35:23.755Z,1.80
2023-07-24T19:37:52.839Z,1.77
2023-07-24T19:40:20.584Z,1.75
2023-07-24T19:42:48.351Z,2.17
2023-07-24T19:45:16.220Z,1.90
2023-07-24T19:47:44.099Z,1.45
2023-07-24T19:50:11.897Z,2.08
2023-07-24T19:52:39.665Z,1.55
2023-07-24T19:55:12.252Z,2.33
2023-07-24T19:57:40.242Z,1.48
2023-07-24T20:00:09.253Z,1.35
2023-07-24T20:02:37.088Z,1.15
2023-07-24T20:05:05.138Z,1.35
2023-07-24T20:07:32.901Z,1.30
2023-07-24T20:10:01.179Z,1.33
2023-07-24T20:12:30.391Z,1.73
2023-07-24T20:14:58.104Z,1.13
2023-07-24T20:17:25.902Z,1.20
2023-07-24T20:19:53.666Z,1.77
2023-07-24T20:22:21.498Z,1.60
2023-07-24T20:24:49.282Z,1.30
2023-07-24T20:27:17.018Z,1.63
2023-07-24T20:29:46.115Z,1.45
2023-07-24T20:32:15.021Z,2.42
2023-07-24T20:34:42.792Z,1.20
2023-07-24T20:37:10.558Z,1.35
2023-07-24T20:39:38.299Z,1.20
2023-07-24T20:42:06.958Z,1.33
2023-07-24T20:44:34.700Z,1.80
2023-07-24T20:47:03.936Z,1.40
2023-07-24T20:49:31.686Z,1.25
2023-07-24T20:51:59.443Z,1.42
2023-07-24T20:54:27.223Z,1.77
2023-07-24T20:56:54.983Z,1.77
2023-07-24T20:59:22.784Z,2.03
2023-07-24T21:01:50.529Z,2.00
2023-07-24T21:04:19.750Z,1.65
2023-07-24T21:06:47.622Z,0.93
2023-07-24T21:09:15.410Z,1.92
2023-07-24T21:11:43.207Z,1.23
2023-07-24T21:14:11.017Z,1.42
2023-07-24T21:16:39.544Z,1.08
2023-07-24T21:19:07.315Z,1.15
2023-07-24T21:21:36.414Z,1.58
2023-07-24T21:24:04.423Z,1.17
2023-07-24T21:26:32.211Z,1.48
2023-07-24T21:28:59.984Z,1.45
2023-07-24T21:31:27.734Z,3.03
2023-07-24T21:33:55.715Z,2.50
2023-07-24T21:36:23.453Z,3.13
2023-07-24T21:38:53.139Z,2.53
2023-07-24T21:41:20.833Z,1.50
2023-07-24T21:43:48.542Z,1.85
2023-07-24T21:46:16.343Z,1.65
2023-07-24T21:48:44.119Z,1.20
2023-07-24T21:51:11.865Z,1.05
2023-07-24T21:53:39.652Z,0.90
2023-07-24T21:56:08.957Z,1.40
2023-07-24T21:58:36.739Z,1.05
2023-07-24T22:01:04.516Z,1.45
2023-07-24T22:03:32.387Z,1.38
2023-07-24T22:06:00.220Z,0.98
2023-07-24T22:08:28.165Z,1.02
2023-07-24T22:10:55.928Z,0.60
2023-07-24T22:13:25.052Z,0.93
2023-07-24T22:15:52.778Z,0.90
2023-07-24T22:18:20.536Z,0.57
2023-07-24T22:20:48.319Z,0.90
2023-07-24T22:23:16.082Z,0.80
2023-07-24T22:25:44.653Z,1.00
2023-07-24T22:28:12.431Z,0.98
2023-07-24T22:30:41.539Z,0.77
2023-07-24T22:33:09.370Z,0.60
2023-07-24T22:35:37.153Z,0.85
2023-07-24T22:38:05.034Z,1.13
2023-07-24T22:40:33.420Z,0.68
2023-07-24T22:43:01.156Z,0.75
2023-07-24T22:45:29.252Z,0.85
2023-07-24T22:47:58.609Z,1.20
2023-07-24T22:50:26.505Z,0.75
2023-07-24T22:52:54.252Z,1.08
2023-07-24T22:55:21.979Z,0.77
2023-07-24T22:57:49.757Z,0.68
2023-07-24T23:00:17.737Z,0.98
2023-07-24T23:02:45.553Z,0.85
2023-07-24T23:05:15.124Z,0.93
2023-07-24T23:07:42.834Z,0.65
2023-07-24T23:10:11.552Z,1.33
2023-07-24T23:12:39.348Z,0.70
2023-07-24T23:15:07.773Z,0.45
2023-07-24T23:17:35.530Z,0.90
2023-07-24T23:20:03.406Z,0.95
2023-07-24T23:22:32.473Z,0.73
2023-07-24T23:25:00.234Z,0.80
2023-07-24T23:27:27.971Z,0.80
2023-07-24T23:29:55.674Z,0.63
2023-07-24T23:32:23.507Z,0.82
2023-07-24T23:34:51.299Z,0.40
2023-07-24T23:37:19.082Z,0.70
2023-07-24T23:39:48.227Z,1.00
2023-07-24T23:42:16.054Z,0.57
2023-07-24T23:44:43.787Z,1.20
2023-07-24T23:47:12.427Z,0.70
2023-07-24T23:49:40.578Z,0.95
2023-07-24T23:52:09.559Z,0.90
2023-07-24T23:54:37.303Z,0.70
2023-07-24T23:57:06.866Z,0.85
2023-07-24T23:59:34.599Z,1.13
